sensor_id;sensor_type;location;lat;lon;timestamp;P1;durP1;ratioP1;P2;durP2;ratioP2
53497;SDS011;39382;47.168;16.008;2022-07-18T00:00:51;2.65;;;1.70;;
53497;SDS011;39382;47.168;16.008;2022-07-18T00:03:17;2.92;;;1.85;;
53497;SDS011;39382;47.168;16.008;2022-07-18T00:05:42;1.38;;;1.27;;
53497;SDS011;39382;47.168;16.008;2022-07-18T00:08:08;2.53;;;1.90;;
53497;SDS011;39382;47.168;16.008;2022-07-18T00:10:35;1.35;;;1.25;;
53497;SDS011;39382;47.168;16.008;2022-07-18T00:13:01;1.45;;;1.35;;
53497;SDS011;39382;47.168;16.008;2022-07-18T00:15:26;1.75;;;1.65;;
53497;SDS011;39382;47.168;16.008;2022-07-18T00:17:52;1.65;;;1.25;;
53497;SDS011;39382;47.168;16.008;2022-07-18T00:20:18;2.85;;;1.67;;
53497;SDS011;39382;47.168;16.008;2022-07-18T00:22:43;3.90;;;1.75;;
53497;SDS011;39382;47.168;16.008;2022-07-18T00:25:09;1.60;;;1.50;;
53497;SDS011;39382;47.168;16.008;2022-07-18T00:27:35;2.53;;;1.60;;
53497;SDS011;39382;47.168;16.008;2022-07-18T00:30:00;1.90;;;1.80;;
53497;SDS011;39382;47.168;16.008;2022-07-18T00:32:26;3.45;;;1.63;;
53497;SDS011;39382;47.168;16.008;2022-07-18T00:34:52;11.80;;;1.85;;
53497;SDS011;39382;47.168;16.008;2022-07-18T00:37:18;1.63;;;1.52;;
53497;SDS011;39382;47.168;16.008;2022-07-18T00:39:43;2.15;;;1.92;;
53497;SDS011;39382;47.168;16.008;2022-07-18T00:42:09;4.80;;;2.10;;
53497;SDS011;39382;47.168;16.008;2022-07-18T00:44:34;1.92;;;1.40;;
53497;SDS011;39382;47.168;16.008;2022-07-18T00:47:00;4.88;;;1.77;;
53497;SDS011;39382;47.168;16.008;2022-07-18T00:49:27;4.18;;;1.60;;
53497;SDS011;39382;47.168;16.008;2022-07-18T00:51:54;4.05;;;1.88;;
53497;SDS011;39382;47.168;16.008;2022-07-18T00:54:20;1.90;;;1.80;;
53497;SDS011;39382;47.168;16.008;2022-07-18T00:56:47;1.75;;;1.50;;
53497;SDS011;39382;47.168;16.008;2022-07-18T00:59:13;3.70;;;1.70;;
53497;SDS011;39382;47.168;16.008;2022-07-18T01:01:39;1.67;;;1.42;;
53497;SDS011;39382;47.168;16.008;2022-07-18T01:04:15;2.90;;;1.42;;
53497;SDS011;39382;47.168;16.008;2022-07-18T01:06:46;1.95;;;1.83;;
53497;SDS011;39382;47.168;16.008;2022-07-18T01:09:13;1.67;;;1.45;;
53497;SDS011;39382;47.168;16.008;2022-07-18T01:11:39;2.35;;;1.77;;
53497;SDS011;39382;47.168;16.008;2022-07-18T01:14:05;1.40;;;1.30;;
53497;SDS011;39382;47.168;16.008;2022-07-18T01:16:32;3.30;;;1.88;;
53497;SDS011;39382;47.168;16.008;2022-07-18T01:18:58;1.65;;;1.55;;
53497;SDS011;39382;47.168;16.008;2022-07-18T01:21:24;2.80;;;1.58;;
53497;SDS011;39382;47.168;16.008;2022-07-18T01:23:51;1.65;;;1.55;;
53497;SDS011;39382;47.168;16.008;2022-07-18T01:26:17;2.20;;;2.10;;
53497;SDS011;39382;47.168;16.008;2022-07-18T01:28:43;2.13;;;2.03;;
53497;SDS011;39382;47.168;16.008;2022-07-18T01:31:09;1.83;;;1.73;;
53497;SDS011;39382;47.168;16.008;2022-07-18T01:33:35;2.20;;;1.98;;
53497;SDS011;39382;47.168;16.008;2022-07-18T01:36:01;1.83;;;1.50;;
53497;SDS011;39382;47.168;16.008;2022-07-18T01:38:29;2.63;;;1.77;;
53497;SDS011;39382;47.168;16.008;2022-07-18T01:40:56;1.88;;;1.50;;
53497;SDS011;39382;47.168;16.008;2022-07-18T01:43:24;2.17;;;1.95;;
53497;SDS011;39382;47.168;16.008;2022-07-18T01:45:51;2.80;;;2.33;;
53497;SDS011;39382;47.168;16.008;2022-07-18T01:48:17;2.17;;;1.98;;
53497;SDS011;39382;47.168;16.008;2022-07-18T01:50:44;4.18;;;2.00;;
53497;SDS011;39382;47.168;16.008;2022-07-18T01:53:10;2.25;;;1.52;;
53497;SDS011;39382;47.168;16.008;2022-07-18T01:55:35;2.65;;;2.13;;
53497;SDS011;39382;47.168;16.008;2022-07-18T01:58:01;6.53;;;2.03;;
53497;SDS011;39382;47.168;16.008;2022-07-18T02:00:27;2.58;;;1.90;;
53497;SDS011;39382;47.168;16.008;2022-07-18T02:02:52;2.47;;;1.67;;
53497;SDS011;39382;47.168;16.008;2022-07-18T02:05:18;4.40;;;1.88;;
53497;SDS011;39382;47.168;16.008;2022-07-18T02:07:44;2.03;;;1.88;;
53497;SDS011;39382;47.168;16.008;2022-07-18T02:10:11;2.20;;;2.00;;
53497;SDS011;39382;47.168;16.008;2022-07-18T02:12:42;3.53;;;2.03;;
53497;SDS011;39382;47.168;16.008;2022-07-18T02:15:08;2.05;;;1.85;;
53497;SDS011;39382;47.168;16.008;2022-07-18T02:17:35;2.38;;;2.17;;
53497;SDS011;39382;47.168;16.008;2022-07-18T02:20:02;3.25;;;2.00;;
53497;SDS011;39382;47.168;16.008;2022-07-18T02:22:29;2.85;;;2.00;;
53497;SDS011;39382;47.168;16.008;2022-07-18T02:24:54;2.05;;;1.85;;
53497;SDS011;39382;47.168;16.008;2022-07-18T02:27:20;3.55;;;1.67;;
53497;SDS011;39382;47.168;16.008;2022-07-18T02:29:46;3.20;;;2.47;;
53497;SDS011;39382;47.168;16.008;2022-07-18T02:32:12;2.95;;;2.75;;
53497;SDS011;39382;47.168;16.008;2022-07-18T02:34:38;2.33;;;2.22;;
53497;SDS011;39382;47.168;16.008;2022-07-18T02:37:04;1.73;;;1.55;;
53497;SDS011;39382;47.168;16.008;2022-07-18T02:39:30;5.82;;;1.70;;
53497;SDS011;39382;47.168;16.008;2022-07-18T02:41:56;2.53;;;1.65;;
53497;SDS011;39382;47.168;16.008;2022-07-18T02:44:22;4.13;;;2.67;;
53497;SDS011;39382;47.168;16.008;2022-07-18T02:46:48;1.77;;;1.67;;
53497;SDS011;39382;47.168;16.008;2022-07-18T02:49:14;2.38;;;2.17;;
53497;SDS011;39382;47.168;16.008;2022-07-18T02:51:56;2.97;;;2.00;;
53497;SDS011;39382;47.168;16.008;2022-07-18T02:54:24;3.10;;;2.10;;
53497;SDS011;39382;47.168;16.008;2022-07-18T02:56:51;2.60;;;1.85;;
53497;SDS011;39382;47.168;16.008;2022-07-18T02:59:17;1.98;;;1.77;;
53497;SDS011;39382;47.168;16.008;2022-07-18T03:01:43;2.17;;;1.80;;
53497;SDS011;39382;47.168;16.008;2022-07-18T03:04:09;2.90;;;1.73;;
53497;SDS011;39382;47.168;16.008;2022-07-18T03:06:35;2.58;;;1.90;;
53497;SDS011;39382;47.168;16.008;2022-07-18T03:09:01;2.10;;;1.90;;
53497;SDS011;39382;47.168;16.008;2022-07-18T03:11:27;3.38;;;2.17;;
53497;SDS011;39382;47.168;16.008;2022-07-18T03:13:53;3.15;;;1.98;;
53497;SDS011;39382;47.168;16.008;2022-07-18T03:16:19;3.83;;;2.15;;
53497;SDS011;39382;47.168;16.008;2022-07-18T03:18:44;4.03;;;2.08;;
53497;SDS011;39382;47.168;16.008;2022-07-18T03:21:10;6.07;;;2.10;;
53497;SDS011;39382;47.168;16.008;2022-07-18T03:23:36;3.65;;;2.08;;
53497;SDS011;39382;47.168;16.008;2022-07-18T03:26:01;2.58;;;2.38;;
53497;SDS011;39382;47.168;16.008;2022-07-18T03:28:27;2.65;;;2.08;;
53497;SDS011;39382;47.168;16.008;2022-07-18T03:30:53;2.67;;;2.10;;
53497;SDS011;39382;47.168;16.008;2022-07-18T03:33:18;4.25;;;2.10;;
53497;SDS011;39382;47.168;16.008;2022-07-18T03:35:44;4.82;;;1.98;;
53497;SDS011;39382;47.168;16.008;2022-07-18T03:38:10;2.33;;;2.13;;
53497;SDS011;39382;47.168;16.008;2022-07-18T03:40:35;1.92;;;1.83;;
53497;SDS011;39382;47.168;16.008;2022-07-18T03:43:01;2.10;;;1.98;;
53497;SDS011;39382;47.168;16.008;2022-07-18T03:45:27;2.75;;;2.00;;
53497;SDS011;39382;47.168;16.008;2022-07-18T03:47:52;2.03;;;1.90;;
53497;SDS011;39382;47.168;16.008;2022-07-18T03:50:20;2.03;;;1.80;;
53497;SDS011;39382;47.168;16.008;2022-07-18T03:52:45;3.50;;;1.73;;
53497;SDS011;39382;47.168;16.008;2022-07-18T03:55:11;2.17;;;1.98;;
53497;SDS011;39382;47.168;16.008;2022-07-18T03:57:38;2.05;;;1.83;;
53497;SDS011;39382;47.168;16.008;2022-07-18T04:00:04;2.05;;;1.83;;
53497;SDS011;39382;47.168;16.008;2022-07-18T04:02:33;3.78;;;1.65;;
53497;SDS011;39382;47.168;16.008;2022-07-18T04:05:09;2.40;;;2.30;;
53497;SDS011;39382;47.168;16.008;2022-07-18T04:07:36;4.47;;;1.63;;
53497;SDS011;39382;47.168;16.008;2022-07-18T04:10:03;3.58;;;1.70;;
53497;SDS011;39382;47.168;16.008;2022-07-18T04:12:30;4.07;;;1.60;;
53497;SDS011;39382;47.168;16.008;2022-07-18T04:14:56;1.52;;;1.42;;
53497;SDS011;39382;47.168;16.008;2022-07-18T04:17:22;2.00;;;1.38;;
53497;SDS011;39382;47.168;16.008;2022-07-18T04:19:48;3.05;;;1.45;;
53497;SDS011;39382;47.168;16.008;2022-07-18T04:22:14;1.90;;;1.52;;
53497;SDS011;39382;47.168;16.008;2022-07-18T04:24:40;2.25;;;1.60;;
53497;SDS011;39382;47.168;16.008;2022-07-18T04:27:05;1.58;;;1.33;;
53497;SDS011;39382;47.168;16.008;2022-07-18T04:29:31;1.77;;;1.25;;
53497;SDS011;39382;47.168;16.008;2022-07-18T04:31:57;5.10;;;1.55;;
53497;SDS011;39382;47.168;16.008;2022-07-18T04:34:23;1.40;;;1.30;;
53497;SDS011;39382;47.168;16.008;2022-07-18T04:36:49;1.80;;;1.70;;
53497;SDS011;39382;47.168;16.008;2022-07-18T04:39:15;1.70;;;1.35;;
53497;SDS011;39382;47.168;16.008;2022-07-18T04:41:41;2.05;;;1.38;;
53497;SDS011;39382;47.168;16.008;2022-07-18T04:44:08;2.60;;;1.02;;
53497;SDS011;39382;47.168;16.008;2022-07-18T04:46:33;2.00;;;1.30;;
53497;SDS011;39382;47.168;16.008;2022-07-18T04:48:59;1.73;;;1.63;;
53497;SDS011;39382;47.168;16.008;2022-07-18T04:51:25;3.17;;;1.45;;
53497;SDS011;39382;47.168;16.008;2022-07-18T04:53:51;5.35;;;1.55;;
53497;SDS011;39382;47.168;16.008;2022-07-18T04:56:19;1.58;;;1.48;;
53497;SDS011;39382;47.168;16.008;2022-07-18T04:58:45;5.55;;;1.70;;
53497;SDS011;39382;47.168;16.008;2022-07-18T05:01:11;1.50;;;1.40;;
53497;SDS011;39382;47.168;16.008;2022-07-18T05:03:37;3.03;;;2.03;;
53497;SDS011;39382;47.168;16.008;2022-07-18T05:06:02;4.85;;;3.42;;
53497;SDS011;39382;47.168;16.008;2022-07-18T05:08:28;3.08;;;2.72;;
53497;SDS011;39382;47.168;16.008;2022-07-18T05:10:54;2.58;;;2.38;;
53497;SDS011;39382;47.168;16.008;2022-07-18T05:13:19;2.22;;;1.80;;
53497;SDS011;39382;47.168;16.008;2022-07-18T05:15:45;4.65;;;2.08;;
53497;SDS011;39382;47.168;16.008;2022-07-18T05:18:11;2.63;;;2.22;;
53497;SDS011;39382;47.168;16.008;2022-07-18T05:20:37;1.98;;;1.80;;
53497;SDS011;39382;47.168;16.008;2022-07-18T05:23:02;3.38;;;2.10;;
53497;SDS011;39382;47.168;16.008;2022-07-18T05:25:28;1.80;;;1.70;;
53497;SDS011;39382;47.168;16.008;2022-07-18T05:27:54;2.85;;;1.98;;
53497;SDS011;39382;47.168;16.008;2022-07-18T05:30:20;1.90;;;1.80;;
53497;SDS011;39382;47.168;16.008;2022-07-18T05:32:46;2.10;;;1.90;;
53497;SDS011;39382;47.168;16.008;2022-07-18T05:35:13;4.65;;;1.60;;
53497;SDS011;39382;47.168;16.008;2022-07-18T05:37:39;3.10;;;2.05;;
53497;SDS011;39382;47.168;16.008;2022-07-18T05:40:06;1.42;;;1.33;;
53497;SDS011;39382;47.168;16.008;2022-07-18T05:42:33;3.25;;;1.75;;
53497;SDS011;39382;47.168;16.008;2022-07-18T05:44:59;2.38;;;1.42;;
53497;SDS011;39382;47.168;16.008;2022-07-18T05:47:25;2.78;;;2.15;;
53497;SDS011;39382;47.168;16.008;2022-07-18T05:49:50;2.97;;;1.23;;
53497;SDS011;39382;47.168;16.008;2022-07-18T05:52:16;2.10;;;1.88;;
53497;SDS011;39382;47.168;16.008;2022-07-18T05:54:42;2.15;;;1.90;;
53497;SDS011;39382;47.168;16.008;2022-07-18T05:57:08;1.50;;;1.40;;
53497;SDS011;39382;47.168;16.008;2022-07-18T05:59:33;1.80;;;1.27;;
53497;SDS011;39382;47.168;16.008;2022-07-18T06:01:59;3.53;;;2.15;;
53497;SDS011;39382;47.168;16.008;2022-07-18T06:04:25;2.20;;;1.63;;
53497;SDS011;39382;47.168;16.008;2022-07-18T06:06:50;1.58;;;1.48;;
53497;SDS011;39382;47.168;16.008;2022-07-18T06:09:16;5.63;;;2.10;;
53497;SDS011;39382;47.168;16.008;2022-07-18T06:11:42;1.55;;;1.33;;
53497;SDS011;39382;47.168;16.008;2022-07-18T06:14:08;2.30;;;1.42;;
53497;SDS011;39382;47.168;16.008;2022-07-18T06:16:34;2.45;;;1.67;;
53497;SDS011;39382;47.168;16.008;2022-07-18T06:19:00;1.98;;;1.77;;
53497;SDS011;39382;47.168;16.008;2022-07-18T06:21:26;2.25;;;1.70;;
53497;SDS011;39382;47.168;16.008;2022-07-18T06:23:51;5.50;;;2.35;;
53497;SDS011;39382;47.168;16.008;2022-07-18T06:26:17;2.28;;;1.67;;
53497;SDS011;39382;47.168;16.008;2022-07-18T06:28:43;1.33;;;1.23;;
53497;SDS011;39382;47.168;16.008;2022-07-18T06:31:09;3.67;;;1.77;;
53497;SDS011;39382;47.168;16.008;2022-07-18T06:33:36;1.45;;;1.35;;
53497;SDS011;39382;47.168;16.008;2022-07-18T06:36:02;4.05;;;1.80;;
53497;SDS011;39382;47.168;16.008;2022-07-18T06:38:30;1.80;;;1.35;;
53497;SDS011;39382;47.168;16.008;2022-07-18T06:40:56;2.53;;;1.50;;
53497;SDS011;39382;47.168;16.008;2022-07-18T06:43:22;2.88;;;1.45;;
53497;SDS011;39382;47.168;16.008;2022-07-18T06:45:47;2.28;;;1.20;;
53497;SDS011;39382;47.168;16.008;2022-07-18T06:48:15;1.42;;;1.10;;
53497;SDS011;39382;47.168;16.008;2022-07-18T06:50:41;1.13;;;0.82;;
53497;SDS011;39382;47.168;16.008;2022-07-18T06:53:07;1.20;;;1.10;;
53497;SDS011;39382;47.168;16.008;2022-07-18T06:55:33;2.00;;;1.48;;
53497;SDS011;39382;47.168;16.008;2022-07-18T06:57:58;4.45;;;2.17;;
53497;SDS011;39382;47.168;16.008;2022-07-18T07:00:24;3.92;;;1.00;;
53497;SDS011;39382;47.168;16.008;2022-07-18T07:02:51;3.55;;;1.00;;
53497;SDS011;39382;47.168;16.008;2022-07-18T07:05:18;2.30;;;0.65;;
53497;SDS011;39382;47.168;16.008;2022-07-18T07:07:44;3.80;;;0.70;;
53497;SDS011;39382;47.168;16.008;2022-07-18T07:10:10;2.05;;;0.65;;
53497;SDS011;39382;47.168;16.008;2022-07-18T07:12:40;2.25;;;0.70;;
53497;SDS011;39382;47.168;16.008;2022-07-18T07:15:10;0.80;;;0.47;;
53497;SDS011;39382;47.168;16.008;2022-07-18T07:17:36;1.20;;;0.68;;
53497;SDS011;39382;47.168;16.008;2022-07-18T07:20:03;1.08;;;0.73;;
53497;SDS011;39382;47.168;16.008;2022-07-18T07:22:30;2.90;;;0.90;;
53497;SDS011;39382;47.168;16.008;2022-07-18T07:24:57;1.13;;;0.57;;
53497;SDS011;39382;47.168;16.008;2022-07-18T07:27:23;1.65;;;1.08;;
53497;SDS011;39382;47.168;16.008;2022-07-18T07:29:48;0.90;;;0.77;;
53497;SDS011;39382;47.168;16.008;2022-07-18T07:32:14;2.05;;;0.57;;
53497;SDS011;39382;47.168;16.008;2022-07-18T07:34:40;0.50;;;0.50;;
53497;SDS011;39382;47.168;16.008;2022-07-18T07:37:05;2.25;;;0.65;;
53497;SDS011;39382;47.168;16.008;2022-07-18T07:39:31;0.70;;;0.40;;
53497;SDS011;39382;47.168;16.008;2022-07-18T07:41:57;0.60;;;0.60;;
53497;SDS011;39382;47.168;16.008;2022-07-18T07:44:22;1.90;;;0.68;;
53497;SDS011;39382;47.168;16.008;2022-07-18T07:46:48;0.50;;;0.50;;
53497;SDS011;39382;47.168;16.008;2022-07-18T07:49:14;0.50;;;0.50;;
53497;SDS011;39382;47.168;16.008;2022-07-18T07:51:40;0.60;;;0.60;;
53497;SDS011;39382;47.168;16.008;2022-07-18T07:54:06;0.93;;;0.82;;
53497;SDS011;39382;47.168;16.008;2022-07-18T07:56:31;0.82;;;0.60;;
53497;SDS011;39382;47.168;16.008;2022-07-18T07:58:57;1.70;;;1.55;;
53497;SDS011;39382;47.168;16.008;2022-07-18T08:01:23;1.52;;;0.80;;
53497;SDS011;39382;47.168;16.008;2022-07-18T08:03:48;0.68;;;0.40;;
53497;SDS011;39382;47.168;16.008;2022-07-18T08:06:15;1.30;;;0.45;;
53497;SDS011;39382;47.168;16.008;2022-07-18T08:08:41;7.00;;;0.60;;
53497;SDS011;39382;47.168;16.008;2022-07-18T08:11:06;1.10;;;0.60;;
53497;SDS011;39382;47.168;16.008;2022-07-18T08:13:32;1.58;;;0.55;;
53497;SDS011;39382;47.168;16.008;2022-07-18T08:15:58;0.20;;;0.20;;
53497;SDS011;39382;47.168;16.008;2022-07-18T08:18:23;1.85;;;0.40;;
53497;SDS011;39382;47.168;16.008;2022-07-18T08:20:49;0.40;;;0.30;;
53497;SDS011;39382;47.168;16.008;2022-07-18T08:23:15;1.40;;;0.60;;
53497;SDS011;39382;47.168;16.008;2022-07-18T08:25:43;0.63;;;0.63;;
53497;SDS011;39382;47.168;16.008;2022-07-18T08:28:10;2.13;;;0.40;;
53497;SDS011;39382;47.168;16.008;2022-07-18T08:30:36;2.03;;;0.75;;
53497;SDS011;39382;47.168;16.008;2022-07-18T08:33:03;0.77;;;0.52;;
53497;SDS011;39382;47.168;16.008;2022-07-18T08:35:29;2.10;;;0.40;;
53497;SDS011;39382;47.168;16.008;2022-07-18T08:37:57;3.20;;;0.80;;
53497;SDS011;39382;47.168;16.008;2022-07-18T08:40:23;0.50;;;0.50;;
53497;SDS011;39382;47.168;16.008;2022-07-18T08:42:53;1.58;;;0.70;;
53497;SDS011;39382;47.168;16.008;2022-07-18T08:45:21;1.52;;;0.98;;
53497;SDS011;39382;47.168;16.008;2022-07-18T08:47:49;1.50;;;0.57;;
53497;SDS011;39382;47.168;16.008;2022-07-18T08:50:15;2.83;;;0.50;;
53497;SDS011;39382;47.168;16.008;2022-07-18T08:52:41;1.35;;;0.50;;
53497;SDS011;39382;47.168;16.008;2022-07-18T08:55:07;3.95;;;0.70;;
53497;SDS011;39382;47.168;16.008;2022-07-18T08:57:34;0.73;;;0.52;;
53497;SDS011;39382;47.168;16.008;2022-07-18T09:00:00;1.70;;;0.55;;
53497;SDS011;39382;47.168;16.008;2022-07-18T09:02:29;0.45;;;0.40;;
53497;SDS011;39382;47.168;16.008;2022-07-18T09:04:54;0.82;;;0.47;;
53497;SDS011;39382;47.168;16.008;2022-07-18T09:07:27;1.10;;;0.70;;
53497;SDS011;39382;47.168;16.008;2022-07-18T09:09:56;1.25;;;0.85;;
53497;SDS011;39382;47.168;16.008;2022-07-18T09:12:25;3.33;;;1.05;;
53497;SDS011;39382;47.168;16.008;2022-07-18T09:14:51;3.03;;;0.95;;
53497;SDS011;39382;47.168;16.008;2022-07-18T09:22:33;3.83;;;0.90;;
53497;SDS011;39382;47.168;16.008;2022-07-18T09:27:40;2.67;;;0.80;;
53497;SDS011;39382;47.168;16.008;2022-07-18T09:30:43;2.35;;;0.50;;
53497;SDS011;39382;47.168;16.008;2022-07-18T09:35:27;2.33;;;0.85;;
53497;SDS011;39382;47.168;16.008;2022-07-18T09:37:56;1.63;;;0.63;;
53497;SDS011;39382;47.168;16.008;2022-07-18T09:40:27;1.65;;;0.77;;
53497;SDS011;39382;47.168;16.008;2022-07-18T09:42:56;1.40;;;1.05;;
53497;SDS011;39382;47.168;16.008;2022-07-18T09:45:28;0.63;;;0.63;;
53497;SDS011;39382;47.168;16.008;2022-07-18T09:47:59;1.13;;;0.60;;
53497;SDS011;39382;47.168;16.008;2022-07-18T09:52:56;1.88;;;0.70;;
53497;SDS011;39382;47.168;16.008;2022-07-18T09:55:23;0.70;;;0.57;;
53497;SDS011;39382;47.168;16.008;2022-07-18T09:58:00;6.15;;;0.70;;
53497;SDS011;39382;47.168;16.008;2022-07-18T10:00:31;0.63;;;0.57;;
53497;SDS011;39382;47.168;16.008;2022-07-18T10:02:59;7.30;;;0.80;;
53497;SDS011;39382;47.168;16.008;2022-07-18T10:05:27;3.58;;;0.82;;
53497;SDS011;39382;47.168;16.008;2022-07-18T10:07:54;4.53;;;1.00;;
53497;SDS011;39382;47.168;16.008;2022-07-18T10:10:20;2.00;;;0.65;;
53497;SDS011;39382;47.168;16.008;2022-07-18T10:12:50;0.70;;;0.70;;
53497;SDS011;39382;47.168;16.008;2022-07-18T10:15:20;1.10;;;0.70;;
53497;SDS011;39382;47.168;16.008;2022-07-18T10:17:47;1.52;;;0.50;;
53497;SDS011;39382;47.168;16.008;2022-07-18T10:20:13;3.45;;;0.75;;
53497;SDS011;39382;47.168;16.008;2022-07-18T10:22:39;1.27;;;0.70;;
53497;SDS011;39382;47.168;16.008;2022-07-18T10:25:09;0.60;;;0.60;;
53497;SDS011;39382;47.168;16.008;2022-07-18T10:28:03;1.38;;;0.63;;
53497;SDS011;39382;47.168;16.008;2022-07-18T10:30:32;0.65;;;0.65;;
53497;SDS011;39382;47.168;16.008;2022-07-18T10:33:00;1.95;;;0.73;;
53497;SDS011;39382;47.168;16.008;2022-07-18T10:36:13;1.88;;;0.77;;
53497;SDS011;39382;47.168;16.008;2022-07-18T10:38:32;0.97;;;0.63;;
53497;SDS011;39382;47.168;16.008;2022-07-18T10:43:31;0.85;;;0.60;;
53497;SDS011;39382;47.168;16.008;2022-07-18T10:46:01;2.50;;;0.85;;
53497;SDS011;39382;47.168;16.008;2022-07-18T10:51:00;2.70;;;1.17;;
53497;SDS011;39382;47.168;16.008;2022-07-18T10:59:14;0.98;;;0.63;;
53497;SDS011;39382;47.168;16.008;2022-07-18T11:01:46;1.13;;;0.65;;
53497;SDS011;39382;47.168;16.008;2022-07-18T11:04:21;1.48;;;0.60;;
53497;SDS011;39382;47.168;16.008;2022-07-18T11:06:52;0.95;;;0.50;;
53497;SDS011;39382;47.168;16.008;2022-07-18T11:09:40;0.85;;;0.63;;
53497;SDS011;39382;47.168;16.008;2022-07-18T11:15:05;1.83;;;0.80;;
53497;SDS011;39382;47.168;16.008;2022-07-18T11:20:25;0.70;;;0.70;;
53497;SDS011;39382;47.168;16.008;2022-07-18T11:22:59;0.60;;;0.60;;
53497;SDS011;39382;47.168;16.008;2022-07-18T11:25:27;0.45;;;0.45;;
53497;SDS011;39382;47.168;16.008;2022-07-18T11:27:54;1.17;;;0.80;;
53497;SDS011;39382;47.168;16.008;2022-07-18T11:30:21;2.58;;;0.82;;
53497;SDS011;39382;47.168;16.008;2022-07-18T11:32:49;0.75;;;0.70;;
53497;SDS011;39382;47.168;16.008;2022-07-18T11:35:16;1.90;;;1.42;;
53497;SDS011;39382;47.168;16.008;2022-07-18T11:37:47;2.72;;;0.60;;
53497;SDS011;39382;47.168;16.008;2022-07-18T11:40:14;0.98;;;0.70;;
53497;SDS011;39382;47.168;16.008;2022-07-18T11:42:40;4.40;;;0.57;;
53497;SDS011;39382;47.168;16.008;2022-07-18T11:45:07;1.17;;;0.93;;
53497;SDS011;39382;47.168;16.008;2022-07-18T11:47:51;1.08;;;0.60;;
53497;SDS011;39382;47.168;16.008;2022-07-18T11:50:26;2.65;;;0.80;;
53497;SDS011;39382;47.168;16.008;2022-07-18T11:53:00;1.98;;;1.00;;
53497;SDS011;39382;47.168;16.008;2022-07-18T11:55:33;1.17;;;1.08;;
53497;SDS011;39382;47.168;16.008;2022-07-18T11:58:10;2.38;;;1.00;;
53497;SDS011;39382;47.168;16.008;2022-07-18T12:00:40;0.73;;;0.70;;
53497;SDS011;39382;47.168;16.008;2022-07-18T12:05:51;1.40;;;0.95;;
53497;SDS011;39382;47.168;16.008;2022-07-18T12:16:39;0.80;;;0.70;;
53497;SDS011;39382;47.168;16.008;2022-07-18T12:19:13;0.85;;;0.55;;
53497;SDS011;39382;47.168;16.008;2022-07-18T12:21:41;3.13;;;0.68;;
53497;SDS011;39382;47.168;16.008;2022-07-18T12:25:08;0.70;;;0.70;;
53497;SDS011;39382;47.168;16.008;2022-07-18T12:29:56;1.73;;;0.68;;
53497;SDS011;39382;47.168;16.008;2022-07-18T12:32:54;0.70;;;0.70;;
53497;SDS011;39382;47.168;16.008;2022-07-18T12:35:28;0.98;;;0.88;;
53497;SDS011;39382;47.168;16.008;2022-07-18T12:38:04;1.15;;;0.60;;
53497;SDS011;39382;47.168;16.008;2022-07-18T12:43:10;0.68;;;0.45;;
53497;SDS011;39382;47.168;16.008;2022-07-18T12:45:38;0.68;;;0.68;;
53497;SDS011;39382;47.168;16.008;2022-07-18T12:48:05;0.60;;;0.60;;
53497;SDS011;39382;47.168;16.008;2022-07-18T12:50:33;1.65;;;1.00;;
53497;SDS011;39382;47.168;16.008;2022-07-18T12:52:59;5.93;;;0.90;;
53497;SDS011;39382;47.168;16.008;2022-07-18T12:55:25;0.73;;;0.70;;
53497;SDS011;39382;47.168;16.008;2022-07-18T12:57:51;0.68;;;0.68;;
53497;SDS011;39382;47.168;16.008;2022-07-18T13:00:17;1.42;;;0.80;;
53497;SDS011;39382;47.168;16.008;2022-07-18T13:02:43;1.65;;;0.90;;
53497;SDS011;39382;47.168;16.008;2022-07-18T13:05:09;0.88;;;0.70;;
53497;SDS011;39382;47.168;16.008;2022-07-18T13:07:35;3.97;;;0.80;;
53497;SDS011;39382;47.168;16.008;2022-07-18T13:10:00;0.60;;;0.60;;
53497;SDS011;39382;47.168;16.008;2022-07-18T13:12:26;1.33;;;0.80;;
53497;SDS011;39382;47.168;16.008;2022-07-18T13:14:52;1.48;;;0.75;;
53497;SDS011;39382;47.168;16.008;2022-07-18T13:17:18;1.25;;;0.90;;
53497;SDS011;39382;47.168;16.008;2022-07-18T13:19:43;1.00;;;0.90;;
53497;SDS011;39382;47.168;16.008;2022-07-18T13:22:10;3.85;;;0.70;;
53497;SDS011;39382;47.168;16.008;2022-07-18T13:24:36;2.03;;;0.80;;
53497;SDS011;39382;47.168;16.008;2022-07-18T13:27:04;3.25;;;0.60;;
53497;SDS011;39382;47.168;16.008;2022-07-18T13:29:31;1.10;;;1.00;;
53497;SDS011;39382;47.168;16.008;2022-07-18T13:31:56;3.08;;;0.88;;
53497;SDS011;39382;47.168;16.008;2022-07-18T13:34:22;3.10;;;0.80;;
53497;SDS011;39382;47.168;16.008;2022-07-18T13:36:49;1.08;;;0.68;;
53497;SDS011;39382;47.168;16.008;2022-07-18T13:39:16;1.95;;;1.08;;
53497;SDS011;39382;47.168;16.008;2022-07-18T13:41:43;0.73;;;0.65;;
53497;SDS011;39382;47.168;16.008;2022-07-18T13:44:10;2.40;;;0.65;;
53497;SDS011;39382;47.168;16.008;2022-07-18T13:46:36;1.63;;;0.80;;
53497;SDS011;39382;47.168;16.008;2022-07-18T13:49:02;0.88;;;0.70;;
53497;SDS011;39382;47.168;16.008;2022-07-18T13:51:27;3.60;;;0.88;;
53497;SDS011;39382;47.168;16.008;2022-07-18T13:53:53;4.28;;;1.15;;
53497;SDS011;39382;47.168;16.008;2022-07-18T13:56:19;1.95;;;0.95;;
53497;SDS011;39382;47.168;16.008;2022-07-18T13:58:44;1.08;;;0.98;;
53497;SDS011;39382;47.168;16.008;2022-07-18T14:01:11;0.93;;;0.50;;
53497;SDS011;39382;47.168;16.008;2022-07-18T14:03:38;1.10;;;0.95;;
53497;SDS011;39382;47.168;16.008;2022-07-18T14:06:04;1.30;;;0.60;;
53497;SDS011;39382;47.168;16.008;2022-07-18T14:08:29;1.38;;;0.70;;
53497;SDS011;39382;47.168;16.008;2022-07-18T14:10:55;4.05;;;1.05;;
53497;SDS011;39382;47.168;16.008;2022-07-18T14:13:21;2.10;;;0.77;;
53497;SDS011;39382;47.168;16.008;2022-07-18T14:15:47;1.27;;;1.20;;
53497;SDS011;39382;47.168;16.008;2022-07-18T14:18:12;1.35;;;0.60;;
53497;SDS011;39382;47.168;16.008;2022-07-18T14:20:38;1.60;;;1.00;;
53497;SDS011;39382;47.168;16.008;2022-07-18T14:23:04;2.33;;;0.43;;
53497;SDS011;39382;47.168;16.008;2022-07-18T14:25:30;0.63;;;0.50;;
53497;SDS011;39382;47.168;16.008;2022-07-18T14:27:56;1.05;;;0.70;;
53497;SDS011;39382;47.168;16.008;2022-07-18T14:30:21;3.60;;;0.80;;
53497;SDS011;39382;47.168;16.008;2022-07-18T14:32:47;1.58;;;0.75;;
53497;SDS011;39382;47.168;16.008;2022-07-18T14:35:13;0.80;;;0.80;;
53497;SDS011;39382;47.168;16.008;2022-07-18T14:37:39;2.95;;;0.90;;
53497;SDS011;39382;47.168;16.008;2022-07-18T14:40:05;0.50;;;0.50;;
53497;SDS011;39382;47.168;16.008;2022-07-18T14:42:31;0.57;;;0.57;;
53497;SDS011;39382;47.168;16.008;2022-07-18T14:44:56;0.80;;;0.70;;
53497;SDS011;39382;47.168;16.008;2022-07-18T14:47:23;2.60;;;0.77;;
53497;SDS011;39382;47.168;16.008;2022-07-18T14:49:48;2.13;;;0.60;;
53497;SDS011;39382;47.168;16.008;2022-07-18T14:52:14;1.05;;;0.65;;
53497;SDS011;39382;47.168;16.008;2022-07-18T14:54:40;7.15;;;1.35;;
53497;SDS011;39382;47.168;16.008;2022-07-18T14:57:06;4.10;;;0.60;;
53497;SDS011;39382;47.168;16.008;2022-07-18T14:59:32;3.47;;;0.63;;
53497;SDS011;39382;47.168;16.008;2022-07-18T15:01:57;1.00;;;0.52;;
53497;SDS011;39382;47.168;16.008;2022-07-18T15:04:27;0.50;;;0.50;;
53497;SDS011;39382;47.168;16.008;2022-07-18T15:06:53;2.25;;;1.05;;
53497;SDS011;39382;47.168;16.008;2022-07-18T15:09:18;0.85;;;0.52;;
53497;SDS011;39382;47.168;16.008;2022-07-18T15:11:44;0.47;;;0.47;;
53497;SDS011;39382;47.168;16.008;2022-07-18T15:14:10;1.25;;;0.82;;
53497;SDS011;39382;47.168;16.008;2022-07-18T15:16:36;3.65;;;0.60;;
53497;SDS011;39382;47.168;16.008;2022-07-18T15:19:02;0.63;;;0.63;;